createdAt,value
2019-05-03T00:00:19.536Z,10.25
2019-05-03T00:01:21.757Z,10.17
2019-05-03T00:03:23.926Z,10.27
2019-05-03T00:04:24.166Z,10.29
2019-05-03T00:06:28.343Z,10.26
2019-05-03T00:07:28.580Z,10.25
2019-05-03T00:09:32.733Z,10.25
2019-05-03T00:10:32.969Z,10.27
2019-05-03T00:12:37.144Z,10.26
2019-05-03T00:13:37.389Z,10.22
2019-05-03T00:15:42.889Z,10.22
2019-05-03T00:16:41.791Z,10.26
2019-05-03T00:18:46.992Z,10.15
2019-05-03T00:19:47.227Z,10.23
2019-05-03T00:21:41.925Z,10.26
2019-05-03T00:22:41.908Z,10.23
2019-05-03T00:24:44.729Z,10.20
2019-05-03T00:25:44.960Z,10.25
2019-05-03T00:27:49.139Z,10.15
2019-05-03T00:28:49.377Z,10.17
2019-05-03T00:30:53.568Z,10.15
2019-05-03T00:31:53.795Z,10.04
2019-05-03T00:33:57.949Z,10.07
2019-05-03T00:34:58.184Z,10.12
2019-05-03T00:37:02.362Z,10.05
2019-05-03T00:38:02.597Z,10.04
2019-05-03T00:40:06.766Z,10.09
2019-05-03T00:41:06.996Z,10.04
2019-05-03T00:43:11.647Z,10.05
2019-05-03T00:44:11.620Z,10.02
2019-05-03T00:46:15.768Z,10.04
2019-05-03T00:47:16.022Z,9.97
2019-05-03T00:49:20.177Z,10.07
2019-05-03T00:50:22.461Z,10.05
2019-05-03T00:52:13.515Z,10.07
2019-05-03T00:53:13.750Z,10.08
2019-05-03T00:55:19.318Z,10.02
2019-05-03T00:56:18.136Z,10.01
2019-05-03T00:58:22.544Z,10.08
2019-05-03T00:59:22.555Z,9.99
2019-05-03T01:01:26.728Z,10.02
2019-05-03T01:02:26.964Z,10.01
2019-05-03T01:04:31.800Z,9.93
2019-05-03T01:05:33.152Z,10.01
2019-05-03T01:07:35.551Z,9.99
2019-05-03T01:08:35.790Z,9.89
2019-05-03T01:10:39.949Z,9.93
2019-05-03T01:11:41.826Z,9.90
2019-05-03T01:13:44.364Z,9.91
2019-05-03T01:14:44.614Z,9.83
2019-05-03T01:16:48.766Z,9.86
2019-05-03T01:17:49.004Z,9.79
2019-05-03T01:19:53.180Z,9.75
2019-05-03T01:20:53.415Z,9.71
2019-05-03T01:22:57.595Z,9.72
2019-05-03T01:23:57.831Z,9.75
2019-05-03T01:26:02.439Z,9.71
2019-05-03T01:27:02.225Z,9.69
2019-05-03T01:29:06.399Z,9.68
2019-05-03T01:30:06.634Z,9.69
2019-05-03T01:31:59.716Z,9.71
2019-05-03T01:32:59.952Z,9.64
2019-05-03T01:35:04.132Z,9.66
2019-05-03T01:36:04.370Z,9.66
2019-05-03T01:38:08.546Z,9.58
2019-05-03T01:39:08.780Z,9.64
2019-05-03T01:41:12.935Z,9.66
2019-05-03T01:42:13.171Z,9.58
2019-05-03T01:44:17.342Z,9.58
2019-05-03T01:45:17.578Z,9.64
2019-05-03T01:47:21.993Z,9.47
2019-05-03T01:48:21.998Z,9.51
2019-05-03T01:50:26.171Z,9.48
2019-05-03T01:51:26.407Z,9.51
2019-05-03T01:53:32.236Z,9.32
2019-05-03T01:54:32.123Z,9.39
2019-05-03T01:56:34.975Z,9.35
2019-05-03T01:57:35.210Z,9.35
2019-05-03T01:59:39.381Z,9.26
2019-05-03T02:00:39.616Z,9.26
2019-05-03T02:02:43.769Z,9.26
2019-05-03T02:03:44.006Z,9.21
2019-05-03T02:05:48.185Z,9.18
2019-05-03T02:06:48.417Z,9.21
2019-05-03T02:08:52.599Z,9.20
2019-05-03T02:09:52.833Z,9.20
2019-05-03T02:11:45.927Z,9.13
2019-05-03T02:12:46.158Z,9.14
2019-05-03T02:14:51.687Z,9.17
2019-05-03T02:15:52.688Z,9.14
2019-05-03T02:17:54.739Z,9.17
2019-05-03T02:18:54.971Z,9.20
2019-05-03T02:20:59.151Z,9.20
2019-05-03T02:21:59.386Z,9.11
2019-05-03T02:24:03.560Z,9.15
2019-05-03T02:25:03.797Z,9.17
2019-05-03T02:27:07.949Z,9.10
2019-05-03T02:28:08.185Z,9.04
2019-05-03T02:30:14.074Z,8.92
2019-05-03T02:31:13.631Z,9.04
2019-05-03T02:33:16.756Z,8.92
2019-05-03T02:34:16.993Z,8.96
2019-05-03T02:36:23.260Z,8.92
2019-05-03T02:37:22.479Z,8.99
2019-05-03T02:39:25.592Z,9.02
2019-05-03T02:40:25.826Z,8.94
2019-05-03T02:42:29.975Z,8.94
2019-05-03T02:43:30.213Z,8.92
2019-05-03T02:45:35.210Z,8.94
2019-05-03T02:46:36.211Z,8.92
2019-05-03T02:48:39.803Z,8.94
2019-05-03T02:49:40.044Z,8.92
2019-05-03T02:51:35.849Z,8.89
2019-05-03T02:52:36.553Z,8.86
2019-05-03T02:54:37.550Z,8.80
2019-05-03T02:55:37.786Z,8.77
2019-05-03T02:57:41.950Z,8.68
2019-05-03T02:58:42.181Z,8.62
2019-05-03T03:00:46.359Z,8.56
2019-05-03T03:01:46.656Z,8.45
2019-05-03T03:03:50.754Z,8.36
2019-05-03T03:04:50.993Z,8.33
2019-05-03T03:06:55.650Z,8.30
2019-05-03T03:07:56.014Z,8.36
2019-05-03T03:09:59.581Z,8.23
2019-05-03T03:10:59.818Z,8.23
2019-05-03T03:13:05.879Z,8.23
2019-05-03T03:14:05.773Z,8.20
2019-05-03T03:16:08.400Z,8.26
2019-05-03T03:17:08.628Z,8.36
2019-05-03T03:19:15.749Z,8.36
2019-05-03T03:20:15.887Z,8.47
2019-05-03T03:22:06.199Z,8.43
2019-05-03T03:23:06.364Z,8.41
2019-05-03T03:25:10.545Z,8.40
2019-05-03T03:26:10.785Z,8.38
2019-05-03T03:28:15.851Z,8.45
2019-05-03T03:29:15.985Z,8.48
2019-05-03T03:31:19.348Z,8.62
2019-05-03T03:32:19.776Z,8.63
2019-05-03T03:34:27.991Z,8.71
2019-05-03T03:35:29.171Z,8.65
2019-05-03T03:37:28.152Z,8.63
2019-05-03T03:38:28.392Z,8.63
2019-05-03T03:40:32.556Z,8.66
2019-05-03T03:41:35.223Z,8.61
2019-05-03T03:43:36.941Z,8.66
2019-05-03T03:44:37.175Z,8.71
2019-05-03T03:46:41.346Z,8.71
2019-05-03T03:47:41.584Z,8.70
2019-05-03T03:49:46.297Z,8.68
2019-05-03T03:50:45.973Z,8.59
2019-05-03T03:52:50.149Z,8.53
2019-05-03T03:53:50.390Z,8.48
2019-05-03T03:55:56.404Z,8.45
2019-05-03T03:57:03.282Z,8.48
2019-05-03T03:58:58.936Z,8.37
2019-05-03T03:59:59.175Z,8.36
2019-05-03T04:01:52.278Z,8.25
2019-05-03T04:02:55.057Z,8.30
2019-05-03T04:04:56.662Z,8.23
2019-05-03T04:05:56.902Z,8.22
2019-05-03T04:08:01.069Z,8.22
2019-05-03T04:09:01.302Z,8.15
2019-05-03T04:11:06.327Z,8.20
2019-05-03T04:12:06.168Z,8.23
2019-05-03T04:14:09.864Z,8.15
2019-05-03T04:15:10.103Z,8.19
2019-05-03T04:17:15.041Z,8.16
2019-05-03T04:18:16.376Z,8.20
2019-05-03T04:20:18.681Z,8.11
2019-05-03T04:21:18.912Z,8.15
2019-05-03T04:23:23.081Z,8.05
2019-05-03T04:24:25.690Z,8.07
2019-05-03T04:26:29.728Z,8.15
2019-05-03T04:27:27.984Z,8.10
2019-05-03T04:29:31.875Z,8.10
2019-05-03T04:30:32.110Z,8.10
2019-05-03T04:32:36.300Z,8.11
2019-05-03T04:33:36.527Z,8.08
2019-05-03T04:35:40.678Z,8.15
2019-05-03T04:36:40.914Z,8.16
2019-05-03T04:38:45.456Z,8.16
2019-05-03T04:39:45.862Z,8.25
2019-05-03T04:41:38.415Z,8.16
2019-05-03T04:42:38.647Z,8.20
2019-05-03T04:44:45.362Z,8.20
2019-05-03T04:45:45.469Z,8.19
2019-05-03T04:47:47.229Z,8.18
2019-05-03T04:48:47.437Z,8.12
2019-05-03T04:50:51.594Z,8.19
2019-05-03T04:51:51.830Z,8.23
2019-05-03T04:53:56.002Z,8.15
2019-05-03T04:54:56.748Z,8.23
2019-05-03T04:57:00.414Z,8.25
2019-05-03T04:58:00.647Z,8.22
2019-05-03T05:00:05.630Z,8.19
2019-05-03T05:01:06.201Z,8.19
2019-05-03T05:03:09.207Z,8.20
2019-05-03T05:04:09.445Z,8.20
2019-05-03T05:06:15.397Z,8.28
2019-05-03T05:07:15.597Z,8.26
2019-05-03T05:09:19.079Z,8.33
2019-05-03T05:10:19.309Z,8.30
2019-05-03T05:12:12.416Z,8.22
2019-05-03T05:13:12.651Z,8.23
2019-05-03T05:15:16.808Z,8.28
2019-05-03T05:16:17.048Z,8.30
2019-05-03T05:18:21.220Z,8.30
2019-05-03T05:19:21.455Z,8.36
2019-05-03T05:21:25.610Z,8.30
2019-05-03T05:22:25.847Z,8.38
2019-05-03T05:24:30.019Z,8.41
2019-05-03T05:25:30.257Z,8.41
2019-05-03T05:27:35.812Z,8.52
2019-05-03T05:28:35.525Z,8.66
2019-05-03T05:30:38.835Z,8.68
2019-05-03T05:31:39.071Z,8.70
2019-05-03T05:33:44.646Z,8.76
2019-05-03T05:34:43.488Z,8.76
2019-05-03T05:36:47.639Z,8.98
2019-05-03T05:37:47.879Z,9.04
2019-05-03T05:39:52.052Z,9.02
2019-05-03T05:40:52.289Z,9.18
2019-05-03T05:42:56.468Z,9.24
2019-05-03T05:43:56.713Z,9.10
2019-05-03T05:46:00.855Z,9.10
2019-05-03T05:47:01.094Z,9.08
2019-05-03T05:49:05.274Z,9.08
2019-05-03T05:50:05.517Z,8.99
2019-05-03T05:51:59.082Z,9.08
2019-05-03T05:52:59.328Z,8.98
2019-05-03T05:55:04.617Z,9.08
2019-05-03T05:56:05.030Z,9.05
2019-05-03T05:58:08.446Z,9.14
2019-05-03T05:59:08.142Z,9.18
2019-05-03T06:01:14.478Z,9.26
2019-05-03T06:02:12.543Z,9.33
2019-05-03T06:04:16.702Z,9.10
2019-05-03T06:05:16.942Z,9.18
2019-05-03T06:07:21.097Z,9.38
2019-05-03T06:08:21.334Z,9.43
2019-05-03T06:10:25.511Z,9.60
2019-05-03T06:11:25.871Z,9.43
2019-05-03T06:13:29.918Z,9.38
2019-05-03T06:14:30.154Z,9.39
2019-05-03T06:16:34.839Z,9.39
2019-05-03T06:17:34.893Z,9.31
2019-05-03T06:19:38.725Z,9.11
2019-05-03T06:20:38.963Z,9.01
2019-05-03T06:22:44.816Z,8.87
2019-05-03T06:23:45.063Z,8.94
2019-05-03T06:25:47.548Z,8.94
2019-05-03T06:26:47.790Z,8.94
2019-05-03T06:28:51.967Z,8.83
2019-05-03T06:29:52.205Z,8.89
2019-05-03T06:31:45.285Z,8.74
2019-05-03T06:32:45.524Z,8.70
2019-05-03T06:34:49.703Z,8.62
2019-05-03T06:35:49.938Z,8.44
2019-05-03T06:37:54.580Z,8.41
2019-05-03T06:38:54.745Z,8.30
2019-05-03T06:40:58.509Z,8.07
2019-05-03T06:41:58.747Z,8.07
2019-05-03T06:44:04.354Z,8.04
2019-05-03T06:45:10.130Z,8.10
2019-05-03T06:47:10.458Z,7.92
2019-05-03T06:48:08.039Z,7.90
2019-05-03T06:50:14.347Z,7.85
2019-05-03T06:51:19.250Z,7.83
2019-05-03T06:53:17.105Z,7.80
2019-05-03T06:54:20.696Z,7.82
2019-05-03T06:56:24.981Z,7.82
2019-05-03T06:57:22.260Z,7.71
2019-05-03T06:59:27.921Z,7.77
2019-05-03T07:00:28.148Z,7.82
2019-05-03T07:02:32.791Z,7.89
2019-05-03T07:03:33.028Z,8.04
2019-05-03T07:05:37.718Z,7.98
2019-05-03T07:06:40.615Z,8.08
2019-05-03T07:08:45.429Z,8.26
2019-05-03T07:09:44.476Z,8.33
2019-05-03T07:11:36.443Z,8.44
2019-05-03T07:12:36.681Z,8.50
2019-05-03T07:14:41.355Z,8.73
2019-05-03T07:15:41.591Z,8.77
2019-05-03T07:17:46.246Z,9.05
2019-05-03T07:18:46.482Z,9.08
2019-05-03T07:20:51.158Z,9.14
2019-05-03T07:21:51.395Z,9.28
2019-05-03T07:23:55.559Z,9.36
2019-05-03T07:24:55.798Z,9.31
2019-05-03T07:27:00.479Z,9.15
2019-05-03T07:28:00.719Z,9.24
2019-05-03T07:30:05.389Z,9.04
2019-05-03T07:31:05.630Z,9.26
2019-05-03T07:33:10.278Z,9.40
2019-05-03T07:34:10.515Z,9.24
2019-05-03T07:36:15.439Z,9.13
2019-05-03T07:37:15.428Z,9.29
2019-05-03T07:39:19.579Z,9.53
2019-05-03T07:40:19.817Z,9.66
2019-05-03T07:42:15.517Z,9.64
2019-05-03T07:43:14.885Z,9.60
2019-05-03T07:45:18.341Z,9.46
2019-05-03T07:46:18.581Z,9.58
2019-05-03T07:48:22.747Z,9.61
2019-05-03T07:49:24.893Z,9.65
2019-05-03T07:51:27.653Z,9.53
2019-05-03T07:52:27.893Z,9.60
2019-05-03T07:54:34.706Z,9.32
2019-05-03T07:55:32.789Z,9.21
2019-05-03T07:57:37.469Z,9.14
2019-05-03T07:58:37.707Z,8.95
2019-05-03T08:00:44.427Z,8.91
2019-05-03T08:01:42.630Z,8.98
2019-05-03T08:03:46.804Z,9.18
2019-05-03T08:04:47.043Z,9.23
2019-05-03T08:06:51.224Z,9.29
2019-05-03T08:07:51.461Z,9.13
2019-05-03T08:09:55.732Z,8.92
2019-05-03T08:10:55.864Z,8.92
2019-05-03T08:13:00.549Z,9.01
2019-05-03T08:14:00.786Z,9.10
2019-05-03T08:16:05.851Z,9.36
2019-05-03T08:17:05.285Z,9.56
2019-05-03T08:19:09.366Z,9.91
2019-05-03T08:20:09.602Z,10.15
2019-05-03T08:22:04.832Z,10.73
2019-05-03T08:23:05.319Z,10.67
2019-05-03T08:25:08.111Z,10.81
2019-05-03T08:26:08.348Z,11.06
2019-05-03T08:28:14.637Z,11.06
2019-05-03T08:29:16.991Z,11.36
2019-05-03T08:31:17.934Z,12.21
2019-05-03T08:32:18.171Z,12.53
2019-05-03T08:34:25.747Z,12.86
2019-05-03T08:35:24.409Z,13.29
2019-05-03T08:37:28.772Z,13.39
2019-05-03T08:38:29.010Z,13.33
2019-05-03T08:40:34.992Z,13.28
2019-05-03T08:41:35.210Z,13.91
2019-05-03T08:43:39.590Z,13.96
2019-05-03T08:44:39.831Z,14.68
2019-05-03T08:46:47.235Z,16.30
2019-05-03T08:47:45.745Z,16.41
2019-05-03T08:49:51.403Z,17.30
2019-05-03T08:50:51.644Z,18.50
2019-05-03T08:52:57.324Z,20.69
2019-05-03T08:53:57.566Z,20.13
2019-05-03T08:56:02.244Z,18.52
2019-05-03T08:57:02.486Z,18.91
2019-05-03T08:59:07.183Z,18.51
2019-05-03T09:00:07.425Z,18.47
2019-05-03T09:02:03.683Z,16.07
2019-05-03T09:03:02.296Z,15.38
2019-05-03T09:05:06.969Z,15.94
2019-05-03T09:06:07.214Z,15.84
2019-05-03T09:08:11.915Z,16.85
2019-05-03T09:09:12.149Z,16.08
2019-05-03T09:11:16.836Z,15.32
2019-05-03T09:12:17.077Z,14.61
2019-05-03T09:14:21.761Z,13.60
2019-05-03T09:15:22.007Z,13.39
2019-05-03T09:17:26.704Z,13.60
2019-05-03T09:18:26.948Z,13.85
2019-05-03T09:20:32.454Z,14.21
2019-05-03T09:21:31.860Z,15.07
2019-05-03T09:23:36.057Z,13.79
2019-05-03T09:24:36.297Z,13.32
2019-05-03T09:26:40.968Z,12.42
2019-05-03T09:27:41.213Z,12.14
2019-05-03T09:29:46.347Z,11.76
2019-05-03T09:30:46.135Z,11.75
2019-05-03T09:32:50.822Z,11.69
2019-05-03T09:33:51.066Z,11.58
2019-05-03T09:35:55.743Z,11.35
2019-05-03T09:36:55.985Z,11.27
2019-05-03T09:39:00.677Z,11.52
2019-05-03T09:40:00.918Z,11.69
2019-05-03T09:41:55.466Z,11.83
2019-05-03T09:42:55.172Z,11.54
2019-05-03T09:44:59.444Z,11.43
2019-05-03T09:45:59.687Z,11.36
2019-05-03T09:48:05.710Z,11.29
2019-05-03T09:49:13.349Z,11.46
2019-05-03T09:51:09.279Z,11.25
2019-05-03T09:52:09.521Z,11.28
2019-05-03T09:54:14.893Z,11.51
2019-05-03T09:55:14.579Z,11.52
2019-05-03T09:57:19.100Z,11.78
2019-05-03T09:58:19.344Z,12.13
2019-05-03T10:00:24.531Z,12.79
2019-05-03T10:01:25.587Z,12.60
2019-05-03T10:03:28.959Z,12.75
2019-05-03T10:04:29.200Z,12.71
2019-05-03T10:06:35.938Z,12.70
2019-05-03T10:07:35.161Z,12.34
2019-05-03T10:09:40.762Z,11.61
2019-05-03T10:10:41.004Z,11.32
2019-05-03T10:12:45.669Z,11.32
2019-05-03T10:13:48.195Z,11.27
2019-05-03T10:15:50.586Z,11.17
2019-05-03T10:16:50.832Z,10.89
2019-05-03T10:18:55.508Z,10.68
2019-05-03T10:19:55.748Z,10.79
2019-05-03T10:21:49.341Z,10.85
2019-05-03T10:22:49.580Z,11.06
2019-05-03T10:24:55.000Z,11.29
2019-05-03T10:25:55.218Z,12.02
2019-05-03T10:27:58.665Z,11.76
2019-05-03T10:28:58.904Z,11.54
2019-05-03T10:31:07.498Z,11.95
2019-05-03T10:32:03.838Z,11.96
2019-05-03T10:34:08.519Z,11.76
2019-05-03T10:35:08.755Z,11.90
2019-05-03T10:37:15.153Z,13.29
2019-05-03T10:38:15.126Z,13.15
2019-05-03T10:40:18.341Z,13.81
2019-05-03T10:41:18.579Z,13.57
2019-05-03T10:43:24.775Z,13.41
2019-05-03T10:44:24.602Z,13.03
2019-05-03T10:46:29.190Z,12.79
2019-05-03T10:47:29.431Z,12.57
2019-05-03T10:49:35.212Z,12.47
2019-05-03T10:50:34.802Z,12.75
2019-05-03T10:52:38.525Z,12.96
2019-05-03T10:53:38.764Z,12.97
2019-05-03T10:55:45.104Z,12.97
2019-05-03T10:56:45.261Z,13.11
2019-05-03T10:58:48.356Z,13.22
2019-05-03T10:59:48.596Z,13.14
2019-05-03T11:01:42.210Z,15.27
2019-05-03T11:02:42.471Z,16.61
2019-05-03T11:04:47.155Z,16.58
2019-05-03T11:05:47.395Z,17.87
2019-05-03T11:07:53.073Z,16.73
2019-05-03T11:08:54.621Z,16.30
2019-05-03T11:10:58.004Z,15.50
2019-05-03T11:11:58.246Z,15.20
2019-05-03T11:14:05.228Z,14.61
2019-05-03T11:15:03.158Z,16.04
2019-05-03T11:17:07.854Z,15.46
2019-05-03T11:18:08.097Z,15.17
2019-05-03T11:20:22.214Z,13.99
2019-05-03T11:21:14.442Z,13.69
2019-05-03T11:23:18.703Z,13.42
2019-05-03T11:24:18.952Z,13.00
2019-05-03T11:26:25.138Z,13.07
2019-05-03T11:27:24.800Z,13.23
2019-05-03T11:29:28.091Z,13.57
2019-05-03T11:30:28.336Z,13.38
2019-05-03T11:32:35.134Z,13.14
2019-05-03T11:33:35.229Z,13.20
2019-05-03T11:35:37.929Z,12.79
2019-05-03T11:36:38.173Z,12.79
2019-05-03T11:38:42.847Z,12.50
2019-05-03T11:39:45.087Z,12.19
2019-05-03T11:41:36.697Z,11.99
2019-05-03T11:42:36.939Z,12.05
2019-05-03T11:44:41.608Z,11.88
2019-05-03T11:45:41.860Z,11.90
2019-05-03T11:47:46.543Z,12.72
2019-05-03T11:48:46.780Z,13.46
2019-05-03T11:50:50.971Z,14.51
2019-05-03T11:51:51.213Z,14.17
2019-05-03T11:53:55.378Z,14.17
2019-05-03T11:54:55.620Z,14.47
2019-05-03T11:56:59.801Z,14.40
2019-05-03T11:58:00.041Z,14.39
2019-05-03T12:00:05.334Z,13.89
2019-05-03T12:01:14.934Z,13.85
2019-05-03T12:03:09.132Z,12.90
2019-05-03T12:04:09.378Z,12.75
2019-05-03T12:06:15.669Z,12.79
2019-05-03T12:07:15.325Z,12.71
2019-05-03T12:09:19.032Z,12.60
2019-05-03T12:10:32.452Z,12.47
2019-05-03T12:12:14.735Z,12.74
2019-05-03T12:13:15.593Z,12.72
2019-05-03T12:15:17.296Z,13.36
2019-05-03T12:16:25.655Z,14.61
2019-05-03T12:18:25.160Z,17.40
2019-05-03T12:19:30.472Z,18.36
2019-05-03T12:21:29.449Z,19.80
2019-05-03T12:22:28.889Z,19.10
2019-05-03T12:24:35.810Z,19.39
2019-05-03T12:25:35.783Z,18.47
2019-05-03T12:27:38.096Z,18.50
2019-05-03T12:28:38.335Z,19.65
2019-05-03T12:30:44.905Z,19.19
2019-05-03T12:31:45.379Z,19.41
2019-05-03T12:33:47.457Z,19.31
2019-05-03T12:34:47.702Z,20.42
2019-05-03T12:36:52.441Z,20.43
2019-05-03T12:37:52.691Z,19.74
2019-05-03T12:39:57.396Z,17.46
2019-05-03T12:40:57.643Z,16.56
2019-05-03T12:43:01.819Z,15.74
2019-05-03T12:44:02.067Z,15.44
2019-05-03T12:46:06.264Z,14.75
2019-05-03T12:47:06.510Z,14.47
2019-05-03T12:49:10.689Z,14.40
2019-05-03T12:50:10.930Z,14.29
2019-05-03T12:52:05.257Z,13.63
2019-05-03T12:53:04.993Z,13.15
2019-05-03T12:55:08.502Z,13.01
2019-05-03T12:56:13.043Z,13.03
2019-05-03T12:58:14.929Z,13.38
2019-05-03T12:59:13.174Z,13.38
2019-05-03T13:01:17.428Z,13.33
2019-05-03T13:02:17.670Z,13.20
2019-05-03T13:04:21.841Z,13.25
2019-05-03T13:05:22.087Z,13.87
2019-05-03T13:07:26.277Z,14.25
2019-05-03T13:08:26.519Z,14.27
2019-05-03T13:10:30.705Z,14.50
2019-05-03T13:11:30.951Z,15.38
2019-05-03T13:13:35.777Z,15.59
2019-05-03T13:14:35.365Z,15.76
2019-05-03T13:16:39.553Z,15.93
2019-05-03T13:17:39.796Z,15.94
2019-05-03T13:19:45.198Z,15.60
2019-05-03T13:20:45.302Z,15.83
2019-05-03T13:22:48.402Z,15.75
2019-05-03T13:23:48.653Z,15.51
2019-05-03T13:25:52.844Z,15.51
2019-05-03T13:26:53.088Z,15.53
2019-05-03T13:28:59.685Z,15.19
2019-05-03T13:29:57.500Z,14.73
2019-05-03T13:32:00.842Z,14.10
2019-05-03T13:32:50.862Z,13.96
2019-05-03T13:34:55.378Z,13.44
2019-05-03T13:35:55.354Z,13.64
2019-05-03T13:37:59.546Z,13.46
2019-05-03T13:39:11.510Z,13.55
2019-05-03T13:41:06.205Z,13.45
2019-05-03T13:42:05.674Z,14.14
2019-05-03T13:44:08.401Z,13.73
2019-05-03T13:45:08.670Z,13.73
2019-05-03T13:47:14.878Z,13.70
2019-05-03T13:48:15.334Z,13.70
2019-05-03T13:50:17.319Z,13.45
2019-05-03T13:51:17.560Z,13.30
2019-05-03T13:53:21.745Z,13.22
2019-05-03T13:54:21.983Z,13.39
2019-05-03T13:56:27.194Z,13.19
2019-05-03T13:57:27.477Z,13.05
2019-05-03T13:59:31.626Z,13.32
2019-05-03T14:00:31.866Z,13.36
2019-05-03T14:02:36.104Z,13.32
2019-05-03T14:03:36.298Z,13.55
2019-05-03T14:05:40.461Z,13.60
2019-05-03T14:06:40.704Z,13.38
2019-05-03T14:08:45.447Z,13.20
2019-05-03T14:09:45.306Z,13.28
2019-05-03T14:11:38.252Z,14.55
2019-05-03T14:12:38.494Z,14.70
2019-05-03T14:14:42.658Z,14.58
2019-05-03T14:15:42.919Z,14.51
2019-05-03T14:17:47.090Z,14.89
2019-05-03T14:18:47.338Z,14.69
2019-05-03T14:20:51.510Z,14.42
2019-05-03T14:21:51.750Z,14.37
2019-05-03T14:23:56.427Z,13.97
2019-05-03T14:24:56.674Z,13.96
2019-05-03T14:27:00.874Z,13.54
2019-05-03T14:28:01.106Z,13.52
2019-05-03T14:30:05.460Z,13.05
2019-05-03T14:31:05.521Z,13.11
2019-05-03T14:33:09.714Z,13.12
2019-05-03T14:34:09.963Z,13.03
2019-05-03T14:36:15.912Z,13.32
2019-05-03T14:37:14.372Z,13.25
2019-05-03T14:39:18.562Z,13.38
2019-05-03T14:40:18.807Z,13.38
2019-05-03T14:42:11.902Z,13.62
2019-05-03T14:43:12.146Z,14.35
2019-05-03T14:45:16.339Z,14.52
2019-05-03T14:46:29.230Z,14.15
2019-05-03T14:48:20.770Z,13.78
2019-05-03T14:49:21.017Z,14.02
2019-05-03T14:51:25.436Z,14.96
2019-05-03T14:52:28.297Z,15.71
2019-05-03T14:54:29.605Z,16.35
2019-05-03T14:55:29.842Z,16.33
2019-05-03T14:57:35.088Z,16.63
2019-05-03T14:58:35.315Z,16.89
2019-05-03T15:00:38.938Z,16.83
2019-05-03T15:01:39.183Z,16.60
2019-05-03T15:03:43.854Z,16.97
2019-05-03T15:04:44.093Z,16.24
2019-05-03T15:06:48.754Z,14.47
2019-05-03T15:07:48.998Z,14.33
2019-05-03T15:09:55.333Z,13.89
2019-05-03T15:10:54.728Z,13.70
2019-05-03T15:12:58.617Z,13.60
2019-05-03T15:13:58.864Z,13.59
2019-05-03T15:16:05.113Z,13.07
2019-05-03T15:17:05.162Z,13.14
2019-05-03T15:19:07.943Z,13.15
2019-05-03T15:20:08.185Z,13.32
2019-05-03T15:22:01.291Z,13.28
2019-05-03T15:23:01.530Z,13.33
2019-05-03T15:25:05.711Z,13.84
2019-05-03T15:26:05.957Z,14.14
2019-05-03T15:28:10.610Z,14.47
2019-05-03T15:29:10.856Z,14.80
2019-05-03T15:31:15.536Z,15.19
2019-05-03T15:32:15.801Z,14.96
2019-05-03T15:34:19.962Z,15.06
2019-05-03T15:35:20.206Z,14.72
2019-05-03T15:37:25.428Z,14.27
2019-05-03T15:38:24.628Z,14.18
2019-05-03T15:40:29.310Z,13.95
2019-05-03T15:41:29.559Z,14.37
2019-05-03T15:43:34.810Z,14.92
2019-05-03T15:44:34.488Z,15.20
2019-05-03T15:46:38.647Z,14.88
2019-05-03T15:47:38.890Z,14.70
2019-05-03T15:49:44.794Z,14.86
2019-05-03T15:50:44.620Z,14.89
2019-05-03T15:52:47.984Z,14.68
2019-05-03T15:53:48.227Z,14.68
2019-05-03T15:55:52.421Z,14.10
2019-05-03T15:56:54.285Z,13.64
2019-05-03T15:58:56.838Z,13.22
2019-05-03T15:59:57.079Z,13.12
2019-05-03T16:01:50.681Z,13.07
2019-05-03T16:02:50.921Z,12.75
2019-05-03T16:04:58.528Z,12.57
2019-05-03T16:05:55.850Z,12.60
2019-05-03T16:08:00.013Z,12.56
2019-05-03T16:09:00.251Z,12.59
2019-05-03T16:11:05.395Z,12.83
2019-05-03T16:12:05.083Z,12.78
2019-05-03T16:14:08.849Z,12.85
2019-05-03T16:15:09.090Z,12.57
2019-05-03T16:17:14.715Z,12.62
2019-05-03T16:18:14.810Z,12.59
2019-05-03T16:20:18.695Z,12.74
2019-05-03T16:21:18.943Z,12.90
2019-05-03T16:23:24.782Z,12.74
2019-05-03T16:24:24.906Z,12.87
2019-05-03T16:26:27.512Z,13.10
2019-05-03T16:27:27.756Z,13.04
2019-05-03T16:29:31.931Z,13.51
2019-05-03T16:30:32.171Z,13.70
2019-05-03T16:32:36.560Z,14.06
2019-05-03T16:33:36.595Z,14.21
2019-05-03T16:35:40.787Z,13.91
2019-05-03T16:36:41.026Z,13.96
2019-05-03T16:38:45.189Z,13.87
2019-05-03T16:39:45.527Z,13.71
2019-05-03T16:41:39.027Z,13.92
2019-05-03T16:42:39.269Z,13.73
2019-05-03T16:44:44.406Z,13.59
2019-05-03T16:45:44.481Z,13.60
2019-05-03T16:47:47.858Z,13.75
2019-05-03T16:48:48.097Z,13.89
2019-05-03T16:50:52.776Z,13.66
2019-05-03T16:51:54.845Z,13.46
2019-05-03T16:53:57.185Z,13.14
2019-05-03T16:54:57.424Z,12.97
2019-05-03T16:57:01.608Z,12.71
2019-05-03T16:58:01.853Z,12.75
2019-05-03T17:00:06.020Z,12.46
2019-05-03T17:01:06.257Z,12.37
2019-05-03T17:03:10.438Z,12.28
2019-05-03T17:04:10.678Z,12.29
2019-05-03T17:06:14.887Z,12.31
2019-05-03T17:07:15.272Z,12.27
2019-05-03T17:09:19.267Z,12.46
2019-05-03T17:10:19.503Z,12.24
2019-05-03T17:12:12.610Z,12.16
2019-05-03T17:13:14.698Z,12.13
2019-05-03T17:15:17.013Z,12.05
2019-05-03T17:16:17.255Z,12.05
2019-05-03T17:18:21.443Z,12.12
2019-05-03T17:19:21.683Z,12.34
2019-05-03T17:21:25.862Z,12.28
2019-05-03T17:22:26.103Z,12.17
2019-05-03T17:24:30.268Z,11.94
2019-05-03T17:25:30.508Z,11.96
2019-05-03T17:27:34.687Z,11.86
2019-05-03T17:28:35.364Z,11.80
2019-05-03T17:30:39.114Z,11.78
2019-05-03T17:31:39.350Z,11.78
2019-05-03T17:33:51.402Z,11.75
2019-05-03T17:34:45.375Z,11.76
2019-05-03T17:36:47.953Z,11.60
2019-05-03T17:37:48.191Z,11.69
2019-05-03T17:39:52.344Z,11.70
2019-05-03T17:40:52.585Z,11.60
2019-05-03T17:42:56.768Z,11.40
2019-05-03T17:43:57.010Z,11.46
2019-05-03T17:46:01.171Z,11.25
2019-05-03T17:47:01.411Z,11.15
2019-05-03T17:49:05.592Z,11.07
2019-05-03T17:50:05.830Z,11.02
2019-05-03T17:51:58.935Z,10.86
2019-05-03T17:52:59.172Z,10.85
2019-05-03T17:55:04.985Z,10.78
2019-05-03T17:56:04.666Z,10.73
2019-05-03T17:58:07.765Z,10.55
2019-05-03T17:59:08.009Z,10.48
2019-05-03T18:01:12.175Z,10.40
2019-05-03T18:02:12.415Z,10.33
2019-05-03T18:04:16.599Z,10.18
2019-05-03T18:05:16.839Z,10.17
2019-05-03T18:07:21.024Z,10.05
2019-05-03T18:08:21.263Z,9.99
2019-05-03T18:10:25.914Z,9.91
2019-05-03T18:11:26.153Z,9.90
2019-05-03T18:13:32.603Z,9.69
2019-05-03T18:14:30.576Z,9.68
2019-05-03T18:16:35.061Z,9.65
2019-05-03T18:17:35.323Z,9.60
2019-05-03T18:19:39.145Z,9.53
2019-05-03T18:20:39.383Z,9.53
2019-05-03T18:22:43.601Z,9.57
2019-05-03T18:23:45.468Z,9.66
2019-05-03T18:25:47.977Z,9.56
2019-05-03T18:26:48.213Z,9.60
2019-05-03T18:28:52.394Z,9.50
2019-05-03T18:29:52.633Z,9.50
2019-05-03T18:31:45.713Z,9.47
2019-05-03T18:32:45.951Z,9.53
2019-05-03T18:34:50.626Z,9.51
2019-05-03T18:35:50.865Z,9.50
2019-05-03T18:37:55.054Z,9.47
2019-05-03T18:38:55.439Z,9.38
2019-05-03T18:40:59.441Z,9.72
2019-05-03T18:41:59.682Z,9.76
2019-05-03T18:44:05.214Z,9.71
2019-05-03T18:45:04.608Z,9.72
2019-05-03T18:47:08.272Z,9.66
2019-05-03T18:48:08.508Z,9.54
2019-05-03T18:50:12.696Z,9.48
2019-05-03T18:51:14.672Z,9.46
2019-05-03T18:53:17.615Z,9.32
2019-05-03T18:54:17.857Z,9.31
2019-05-03T18:56:22.021Z,9.26
2019-05-03T18:57:22.262Z,9.18
2019-05-03T18:59:26.453Z,9.24
2019-05-03T19:00:26.683Z,9.43
2019-05-03T19:02:31.335Z,9.40
2019-05-03T19:03:31.571Z,9.39
2019-05-03T19:05:36.244Z,9.47
2019-05-03T19:06:36.483Z,9.40
2019-05-03T19:08:40.664Z,9.35
2019-05-03T19:09:40.901Z,9.24
2019-05-03T19:11:35.215Z,9.24
2019-05-03T19:12:35.693Z,9.40
2019-05-03T19:14:38.418Z,9.33
2019-05-03T19:15:38.659Z,9.31
2019-05-03T19:17:42.818Z,9.13
2019-05-03T19:18:43.062Z,9.08
2019-05-03T19:20:47.243Z,9.02
2019-05-03T19:21:47.481Z,9.10
2019-05-03T19:23:51.631Z,9.13
2019-05-03T19:24:51.872Z,9.05
2019-05-03T19:26:56.041Z,9.10
2019-05-03T19:27:56.280Z,9.02
2019-05-03T19:30:00.457Z,8.96
2019-05-03T19:31:00.695Z,8.94
2019-05-03T19:33:04.851Z,8.89
2019-05-03T19:34:06.053Z,8.94
2019-05-03T19:36:09.272Z,8.95
2019-05-03T19:37:09.509Z,8.94
2019-05-03T19:39:14.475Z,8.79
2019-05-03T19:40:14.420Z,8.89
2019-05-03T19:42:07.504Z,8.80
2019-05-03T19:43:07.740Z,8.76
2019-05-03T19:45:11.933Z,8.62
2019-05-03T19:46:12.172Z,8.62
2019-05-03T19:48:17.015Z,8.65
2019-05-03T19:49:16.568Z,8.62
2019-05-03T19:51:20.744Z,8.70
2019-05-03T19:52:20.983Z,8.52
2019-05-03T19:54:25.166Z,8.59
2019-05-03T19:55:25.409Z,8.56
2019-05-03T19:57:29.569Z,8.56
2019-05-03T19:58:29.821Z,8.40
2019-05-03T20:00:34.832Z,8.41